Terminal Aerodrome Forecast
Issued by NWS Lake Charles, LA

Home | Current Version | Previous Version | Text Only | Print | Product List | Glossary On
Versions: 1 2 3 4 5 6 7 8 9 10 11 12 13 14 15
351
FTUS44 KLCH 311130
TAFARA
TAF
KARA 311130Z 3112/0112 00000KT P6SM BKN250
     FM311400 17006KT P6SM SCT025
     FM311900 19010KT P6SM SCT035
     FM010100 00000KT P6SM SCT250=

USA.gov is the U.S. government's official web portal to all federal, state and local government web resources and services.